sensor_id;sensor_type;location;lat;lon;timestamp;P1;durP1;ratioP1;P2;durP2;ratioP2
38609;SDS011;24367;51.640;9.566;2023-03-04T00:00:42;6.95;;;4.50;;
38609;SDS011;24367;51.640;9.566;2023-03-04T00:03:10;4.85;;;4.25;;
38609;SDS011;24367;51.640;9.566;2023-03-04T00:05:39;5.38;;;4.55;;
38609;SDS011;24367;51.640;9.566;2023-03-04T00:08:05;5.20;;;4.55;;
38609;SDS011;24367;51.640;9.566;2023-03-04T00:10:33;4.85;;;3.90;;
38609;SDS011;24367;51.640;9.566;2023-03-04T00:12:59;5.50;;;4.22;;
38609;SDS011;24367;51.640;9.566;2023-03-04T00:15:26;5.85;;;4.72;;
38609;SDS011;24367;51.640;9.566;2023-03-04T00:17:52;5.25;;;4.30;;
38609;SDS011;24367;51.640;9.566;2023-03-04T00:20:19;5.38;;;4.32;;
38609;SDS011;24367;51.640;9.566;2023-03-04T00:22:45;5.90;;;4.43;;
38609;SDS011;24367;51.640;9.566;2023-03-04T00:25:11;5.85;;;4.63;;
38609;SDS011;24367;51.640;9.566;2023-03-04T00:27:39;5.28;;;4.22;;
38609;SDS011;24367;51.640;9.566;2023-03-04T00:30:07;5.68;;;4.50;;
38609;SDS011;24367;51.640;9.566;2023-03-04T00:32:34;5.70;;;4.85;;
38609;SDS011;24367;51.640;9.566;2023-03-04T00:35:02;5.03;;;4.07;;
38609;SDS011;24367;51.640;9.566;2023-03-04T00:37:29;5.38;;;4.70;;
38609;SDS011;24367;51.640;9.566;2023-03-04T00:39:55;5.18;;;4.68;;
38609;SDS011;24367;51.640;9.566;2023-03-04T00:42:21;5.00;;;4.05;;
38609;SDS011;24367;51.640;9.566;2023-03-04T00:44:49;6.70;;;4.45;;
38609;SDS011;24367;51.640;9.566;2023-03-04T00:47:16;5.85;;;4.82;;
38609;SDS011;24367;51.640;9.566;2023-03-04T00:49:42;4.93;;;4.35;;
38609;SDS011;24367;51.640;9.566;2023-03-04T00:52:09;5.97;;;4.97;;
38609;SDS011;24367;51.640;9.566;2023-03-04T00:54:35;5.72;;;4.63;;
38609;SDS011;24367;51.640;9.566;2023-03-04T00:57:02;5.07;;;4.50;;
38609;SDS011;24367;51.640;9.566;2023-03-04T00:59:28;4.65;;;4.18;;
38609;SDS011;24367;51.640;9.566;2023-03-04T01:01:56;5.30;;;4.40;;
38609;SDS011;24367;51.640;9.566;2023-03-04T01:04:22;7.03;;;4.70;;
38609;SDS011;24367;51.640;9.566;2023-03-04T01:06:49;5.70;;;4.78;;
38609;SDS011;24367;51.640;9.566;2023-03-04T01:09:15;5.68;;;4.40;;
38609;SDS011;24367;51.640;9.566;2023-03-04T01:11:42;5.07;;;4.57;;
38609;SDS011;24367;51.640;9.566;2023-03-04T01:14:09;6.13;;;4.80;;
38609;SDS011;24367;51.640;9.566;2023-03-04T01:16:36;4.97;;;4.22;;
38609;SDS011;24367;51.640;9.566;2023-03-04T01:19:03;5.30;;;4.70;;
38609;SDS011;24367;51.640;9.566;2023-03-04T01:21:30;5.38;;;4.82;;
38609;SDS011;24367;51.640;9.566;2023-03-04T01:23:56;5.30;;;4.55;;
38609;SDS011;24367;51.640;9.566;2023-03-04T01:26:22;4.75;;;4.25;;
38609;SDS011;24367;51.640;9.566;2023-03-04T01:28:49;5.60;;;4.78;;
38609;SDS011;24367;51.640;9.566;2023-03-04T01:31:15;4.85;;;4.35;;
38609;SDS011;24367;51.640;9.566;2023-03-04T01:33:42;6.30;;;4.53;;
38609;SDS011;24367;51.640;9.566;2023-03-04T01:36:10;5.18;;;4.60;;
38609;SDS011;24367;51.640;9.566;2023-03-04T01:38:37;4.35;;;3.95;;
38609;SDS011;24367;51.640;9.566;2023-03-04T01:41:03;5.25;;;4.47;;
38609;SDS011;24367;51.640;9.566;2023-03-04T01:43:31;4.80;;;4.25;;
38609;SDS011;24367;51.640;9.566;2023-03-04T01:45:58;5.07;;;4.18;;
38609;SDS011;24367;51.640;9.566;2023-03-04T01:48:26;5.65;;;4.20;;
38609;SDS011;24367;51.640;9.566;2023-03-04T01:50:54;4.65;;;3.85;;
38609;SDS011;24367;51.640;9.566;2023-03-04T01:53:23;5.15;;;4.47;;
38609;SDS011;24367;51.640;9.566;2023-03-04T01:55:51;4.97;;;4.18;;
38609;SDS011;24367;51.640;9.566;2023-03-04T01:58:18;5.80;;;4.60;;
38609;SDS011;24367;51.640;9.566;2023-03-04T02:00:44;5.25;;;4.35;;
38609;SDS011;24367;51.640;9.566;2023-03-04T02:03:11;5.65;;;4.78;;
38609;SDS011;24367;51.640;9.566;2023-03-04T02:05:40;5.47;;;4.45;;
38609;SDS011;24367;51.640;9.566;2023-03-04T02:08:07;5.40;;;4.60;;
38609;SDS011;24367;51.640;9.566;2023-03-04T02:10:36;6.30;;;4.75;;
38609;SDS011;24367;51.640;9.566;2023-03-04T02:13:04;5.10;;;4.55;;
38609;SDS011;24367;51.640;9.566;2023-03-04T02:15:30;4.68;;;4.13;;
38609;SDS011;24367;51.640;9.566;2023-03-04T02:17:57;5.57;;;4.80;;
38609;SDS011;24367;51.640;9.566;2023-03-04T02:20:27;5.18;;;4.68;;
38609;SDS011;24367;51.640;9.566;2023-03-04T02:23:00;5.25;;;4.75;;
38609;SDS011;24367;51.640;9.566;2023-03-04T02:25:30;4.97;;;3.88;;
38609;SDS011;24367;51.640;9.566;2023-03-04T02:28:00;5.97;;;4.55;;
38609;SDS011;24367;51.640;9.566;2023-03-04T02:30:26;5.90;;;4.55;;
38609;SDS011;24367;51.640;9.566;2023-03-04T02:32:53;4.60;;;3.95;;
38609;SDS011;24367;51.640;9.566;2023-03-04T02:35:19;5.63;;;4.22;;
38609;SDS011;24367;51.640;9.566;2023-03-04T02:37:46;5.20;;;4.32;;
38609;SDS011;24367;51.640;9.566;2023-03-04T02:40:13;4.85;;;3.90;;
38609;SDS011;24367;51.640;9.566;2023-03-04T02:42:42;5.35;;;4.03;;
38609;SDS011;24367;51.640;9.566;2023-03-04T02:47:59;5.38;;;4.30;;
38609;SDS011;24367;51.640;9.566;2023-03-04T02:50:26;5.07;;;4.38;;
38609;SDS011;24367;51.640;9.566;2023-03-04T02:52:53;4.72;;;3.70;;
38609;SDS011;24367;51.640;9.566;2023-03-04T02:55:20;5.10;;;4.18;;
38609;SDS011;24367;51.640;9.566;2023-03-04T02:57:46;5.75;;;4.22;;
38609;SDS011;24367;51.640;9.566;2023-03-04T03:00:13;5.10;;;4.28;;
38609;SDS011;24367;51.640;9.566;2023-03-04T03:02:42;5.18;;;4.30;;
38609;SDS011;24367;51.640;9.566;2023-03-04T03:05:09;5.38;;;4.15;;
38609;SDS011;24367;51.640;9.566;2023-03-04T03:07:36;4.72;;;3.97;;
38609;SDS011;24367;51.640;9.566;2023-03-04T03:10:03;4.55;;;3.80;;
38609;SDS011;24367;51.640;9.566;2023-03-04T03:12:30;5.53;;;4.22;;
38609;SDS011;24367;51.640;9.566;2023-03-04T03:14:56;5.53;;;4.10;;
38609;SDS011;24367;51.640;9.566;2023-03-04T03:17:23;5.28;;;4.13;;
38609;SDS011;24367;51.640;9.566;2023-03-04T03:19:51;6.45;;;4.53;;
38609;SDS011;24367;51.640;9.566;2023-03-04T03:22:18;5.05;;;4.28;;
38609;SDS011;24367;51.640;9.566;2023-03-04T03:24:44;5.82;;;4.25;;
38609;SDS011;24367;51.640;9.566;2023-03-04T03:27:11;5.07;;;4.10;;
38609;SDS011;24367;51.640;9.566;2023-03-04T03:29:37;4.45;;;3.80;;
38609;SDS011;24367;51.640;9.566;2023-03-04T03:32:06;5.10;;;4.13;;
38609;SDS011;24367;51.640;9.566;2023-03-04T03:34:32;4.72;;;3.83;;
38609;SDS011;24367;51.640;9.566;2023-03-04T03:37:00;4.93;;;3.92;;
38609;SDS011;24367;51.640;9.566;2023-03-04T03:39:27;5.88;;;4.38;;
38609;SDS011;24367;51.640;9.566;2023-03-04T03:41:53;4.80;;;4.00;;
38609;SDS011;24367;51.640;9.566;2023-03-04T03:44:19;5.45;;;4.20;;
38609;SDS011;24367;51.640;9.566;2023-03-04T03:46:46;4.47;;;3.65;;
38609;SDS011;24367;51.640;9.566;2023-03-04T03:49:12;5.13;;;3.67;;
38609;SDS011;24367;51.640;9.566;2023-03-04T03:51:41;5.32;;;4.00;;
38609;SDS011;24367;51.640;9.566;2023-03-04T03:54:09;5.32;;;3.97;;
38609;SDS011;24367;51.640;9.566;2023-03-04T03:56:35;5.57;;;3.72;;
38609;SDS011;24367;51.640;9.566;2023-03-04T03:59:01;4.70;;;3.50;;
38609;SDS011;24367;51.640;9.566;2023-03-04T04:01:28;6.07;;;4.20;;
38609;SDS011;24367;51.640;9.566;2023-03-04T04:03:54;6.38;;;3.83;;
38609;SDS011;24367;51.640;9.566;2023-03-04T04:06:21;5.05;;;3.80;;
38609;SDS011;24367;51.640;9.566;2023-03-04T04:08:47;4.45;;;3.25;;
38609;SDS011;24367;51.640;9.566;2023-03-04T04:11:15;6.72;;;3.80;;
38609;SDS011;24367;51.640;9.566;2023-03-04T04:13:42;5.03;;;3.47;;
38609;SDS011;24367;51.640;9.566;2023-03-04T04:16:08;5.40;;;3.85;;
38609;SDS011;24367;51.640;9.566;2023-03-04T04:18:34;4.90;;;3.63;;
38609;SDS011;24367;51.640;9.566;2023-03-04T04:21:01;4.85;;;3.47;;
38609;SDS011;24367;51.640;9.566;2023-03-04T04:23:28;4.55;;;3.53;;
38609;SDS011;24367;51.640;9.566;2023-03-04T04:25:54;5.85;;;3.70;;
38609;SDS011;24367;51.640;9.566;2023-03-04T04:28:22;5.68;;;3.83;;
38609;SDS011;24367;51.640;9.566;2023-03-04T04:30:48;4.30;;;2.95;;
38609;SDS011;24367;51.640;9.566;2023-03-04T04:33:15;5.63;;;3.75;;
38609;SDS011;24367;51.640;9.566;2023-03-04T04:35:41;4.80;;;3.33;;
38609;SDS011;24367;51.640;9.566;2023-03-04T04:38:08;4.88;;;3.53;;
38609;SDS011;24367;51.640;9.566;2023-03-04T04:40:35;5.25;;;3.30;;
38609;SDS011;24367;51.640;9.566;2023-03-04T04:43:02;4.57;;;2.92;;
38609;SDS011;24367;51.640;9.566;2023-03-04T04:45:29;5.47;;;3.33;;
38609;SDS011;24367;51.640;9.566;2023-03-04T04:47:56;4.32;;;3.08;;
38609;SDS011;24367;51.640;9.566;2023-03-04T04:50:22;4.65;;;3.10;;
38609;SDS011;24367;51.640;9.566;2023-03-04T04:52:49;5.55;;;3.50;;
38609;SDS011;24367;51.640;9.566;2023-03-04T04:55:15;5.05;;;3.20;;
38609;SDS011;24367;51.640;9.566;2023-03-04T04:57:42;5.53;;;3.35;;
38609;SDS011;24367;51.640;9.566;2023-03-04T05:00:08;4.72;;;3.10;;
38609;SDS011;24367;51.640;9.566;2023-03-04T05:02:37;5.25;;;3.20;;
38609;SDS011;24367;51.640;9.566;2023-03-04T05:05:04;4.45;;;2.95;;
38609;SDS011;24367;51.640;9.566;2023-03-04T05:07:31;4.35;;;2.97;;
38609;SDS011;24367;51.640;9.566;2023-03-04T05:09:58;5.22;;;3.08;;
38609;SDS011;24367;51.640;9.566;2023-03-04T05:12:24;4.45;;;2.83;;
38609;SDS011;24367;51.640;9.566;2023-03-04T05:14:50;4.63;;;2.83;;
38609;SDS011;24367;51.640;9.566;2023-03-04T05:17:17;4.97;;;2.97;;
38609;SDS011;24367;51.640;9.566;2023-03-04T05:19:45;3.85;;;2.83;;
38609;SDS011;24367;51.640;9.566;2023-03-04T05:22:11;4.35;;;2.72;;
38609;SDS011;24367;51.640;9.566;2023-03-04T05:24:38;5.03;;;2.90;;
38609;SDS011;24367;51.640;9.566;2023-03-04T05:27:04;4.57;;;3.10;;
38609;SDS011;24367;51.640;9.566;2023-03-04T05:29:30;4.95;;;2.80;;
38609;SDS011;24367;51.640;9.566;2023-03-04T05:31:57;4.28;;;2.70;;
38609;SDS011;24367;51.640;9.566;2023-03-04T05:34:23;5.25;;;3.15;;
38609;SDS011;24367;51.640;9.566;2023-03-04T05:36:51;5.13;;;3.10;;
38609;SDS011;24367;51.640;9.566;2023-03-04T05:39:17;4.15;;;2.53;;
38609;SDS011;24367;51.640;9.566;2023-03-04T05:41:44;4.28;;;2.60;;
38609;SDS011;24367;51.640;9.566;2023-03-04T05:44:10;5.53;;;2.85;;
38609;SDS011;24367;51.640;9.566;2023-03-04T05:46:36;5.60;;;3.00;;
38609;SDS011;24367;51.640;9.566;2023-03-04T05:49:03;4.90;;;2.75;;
38609;SDS011;24367;51.640;9.566;2023-03-04T05:51:29;5.30;;;2.83;;
38609;SDS011;24367;51.640;9.566;2023-03-04T05:53:57;4.47;;;2.60;;
38609;SDS011;24367;51.640;9.566;2023-03-04T05:56:23;4.45;;;2.70;;
38609;SDS011;24367;51.640;9.566;2023-03-04T05:58:50;5.32;;;3.05;;
38609;SDS011;24367;51.640;9.566;2023-03-04T06:01:16;5.10;;;2.47;;
38609;SDS011;24367;51.640;9.566;2023-03-04T06:03:43;4.35;;;2.28;;
38609;SDS011;24367;51.640;9.566;2023-03-04T06:06:12;5.28;;;2.80;;
38609;SDS011;24367;51.640;9.566;2023-03-04T06:08:38;4.55;;;2.80;;
38609;SDS011;24367;51.640;9.566;2023-03-04T06:11:06;4.32;;;2.50;;
38609;SDS011;24367;51.640;9.566;2023-03-04T06:13:33;4.20;;;2.17;;
38609;SDS011;24367;51.640;9.566;2023-03-04T06:15:59;4.60;;;2.63;;
38609;SDS011;24367;51.640;9.566;2023-03-04T06:18:26;4.72;;;2.67;;
38609;SDS011;24367;51.640;9.566;2023-03-04T06:20:55;5.30;;;2.95;;
38609;SDS011;24367;51.640;9.566;2023-03-04T06:23:22;4.57;;;2.42;;
38609;SDS011;24367;51.640;9.566;2023-03-04T06:25:50;4.75;;;2.45;;
38609;SDS011;24367;51.640;9.566;2023-03-04T06:28:18;3.63;;;2.30;;
38609;SDS011;24367;51.640;9.566;2023-03-04T06:30:44;4.65;;;2.33;;
38609;SDS011;24367;51.640;9.566;2023-03-04T06:33:11;4.57;;;2.70;;
38609;SDS011;24367;51.640;9.566;2023-03-04T06:35:37;6.90;;;2.35;;
38609;SDS011;24367;51.640;9.566;2023-03-04T06:38:04;5.15;;;2.45;;
38609;SDS011;24367;51.640;9.566;2023-03-04T06:40:30;6.72;;;2.42;;
38609;SDS011;24367;51.640;9.566;2023-03-04T06:42:57;6.35;;;2.47;;
38609;SDS011;24367;51.640;9.566;2023-03-04T06:45:25;6.28;;;2.33;;
38609;SDS011;24367;51.640;9.566;2023-03-04T06:47:51;3.72;;;2.10;;
38609;SDS011;24367;51.640;9.566;2023-03-04T06:50:18;4.55;;;2.40;;
38609;SDS011;24367;51.640;9.566;2023-03-04T06:52:45;6.20;;;2.38;;
38609;SDS011;24367;51.640;9.566;2023-03-04T06:55:12;5.80;;;2.50;;
38609;SDS011;24367;51.640;9.566;2023-03-04T06:57:38;4.88;;;2.38;;
38609;SDS011;24367;51.640;9.566;2023-03-04T07:00:05;5.88;;;2.53;;
38609;SDS011;24367;51.640;9.566;2023-03-04T07:02:33;6.32;;;2.40;;
38609;SDS011;24367;51.640;9.566;2023-03-04T07:05:00;6.25;;;2.63;;
38609;SDS011;24367;51.640;9.566;2023-03-04T07:07:26;3.35;;;2.20;;
38609;SDS011;24367;51.640;9.566;2023-03-04T07:09:52;4.13;;;2.28;;
38609;SDS011;24367;51.640;9.566;2023-03-04T07:12:19;4.32;;;2.15;;
38609;SDS011;24367;51.640;9.566;2023-03-04T07:14:45;4.35;;;2.22;;
38609;SDS011;24367;51.640;9.566;2023-03-04T07:17:12;3.97;;;2.10;;
38609;SDS011;24367;51.640;9.566;2023-03-04T07:19:40;4.63;;;2.15;;
38609;SDS011;24367;51.640;9.566;2023-03-04T07:22:06;5.07;;;2.30;;
38609;SDS011;24367;51.640;9.566;2023-03-04T07:24:33;5.00;;;2.20;;
38609;SDS011;24367;51.640;9.566;2023-03-04T07:26:59;4.80;;;2.10;;
38609;SDS011;24367;51.640;9.566;2023-03-04T07:29:26;4.25;;;2.03;;
38609;SDS011;24367;51.640;9.566;2023-03-04T07:31:52;5.72;;;2.42;;
38609;SDS011;24367;51.640;9.566;2023-03-04T07:34:19;4.32;;;1.95;;
38609;SDS011;24367;51.640;9.566;2023-03-04T07:36:47;4.03;;;2.05;;
38609;SDS011;24367;51.640;9.566;2023-03-04T07:39:13;5.50;;;2.22;;
38609;SDS011;24367;51.640;9.566;2023-03-04T07:41:40;3.90;;;1.88;;
38609;SDS011;24367;51.640;9.566;2023-03-04T07:44:07;4.22;;;2.13;;
38609;SDS011;24367;51.640;9.566;2023-03-04T07:46:34;4.63;;;2.28;;
38609;SDS011;24367;51.640;9.566;2023-03-04T07:49:00;4.63;;;2.13;;
38609;SDS011;24367;51.640;9.566;2023-03-04T07:51:27;5.57;;;2.00;;
38609;SDS011;24367;51.640;9.566;2023-03-04T07:53:55;5.03;;;2.30;;
38609;SDS011;24367;51.640;9.566;2023-03-04T07:56:23;5.65;;;2.42;;
38609;SDS011;24367;51.640;9.566;2023-03-04T07:58:50;3.58;;;1.75;;
38609;SDS011;24367;51.640;9.566;2023-03-04T08:01:19;4.32;;;2.10;;
38609;SDS011;24367;51.640;9.566;2023-03-04T08:03:47;4.88;;;1.95;;
38609;SDS011;24367;51.640;9.566;2023-03-04T08:06:14;5.32;;;2.10;;
38609;SDS011;24367;51.640;9.566;2023-03-04T08:08:41;3.95;;;1.70;;
38609;SDS011;24367;51.640;9.566;2023-03-04T08:11:10;9.23;;;2.20;;
38609;SDS011;24367;51.640;9.566;2023-03-04T08:13:41;6.15;;;1.80;;
38609;SDS011;24367;51.640;9.566;2023-03-04T08:16:09;11.07;;;2.35;;
38609;SDS011;24367;51.640;9.566;2023-03-04T08:18:35;4.38;;;1.75;;
38609;SDS011;24367;51.640;9.566;2023-03-04T08:21:06;6.30;;;2.05;;
38609;SDS011;24367;51.640;9.566;2023-03-04T08:23:33;5.32;;;2.20;;
38609;SDS011;24367;51.640;9.566;2023-03-04T08:26:04;4.30;;;2.08;;
38609;SDS011;24367;51.640;9.566;2023-03-04T08:28:32;3.95;;;1.95;;
38609;SDS011;24367;51.640;9.566;2023-03-04T08:30:59;7.65;;;2.00;;
38609;SDS011;24367;51.640;9.566;2023-03-04T08:33:25;4.03;;;2.03;;
38609;SDS011;24367;51.640;9.566;2023-03-04T08:35:51;4.63;;;1.95;;
38609;SDS011;24367;51.640;9.566;2023-03-04T08:38:18;4.03;;;1.88;;
38609;SDS011;24367;51.640;9.566;2023-03-04T08:40:44;4.22;;;2.05;;
38609;SDS011;24367;51.640;9.566;2023-03-04T08:43:11;3.60;;;1.75;;
38609;SDS011;24367;51.640;9.566;2023-03-04T08:45:38;3.92;;;1.92;;
38609;SDS011;24367;51.640;9.566;2023-03-04T08:48:05;4.93;;;2.22;;
38609;SDS011;24367;51.640;9.566;2023-03-04T08:50:31;5.32;;;2.08;;
38609;SDS011;24367;51.640;9.566;2023-03-04T08:52:58;4.43;;;2.17;;
38609;SDS011;24367;51.640;9.566;2023-03-04T08:55:24;5.68;;;2.00;;
38609;SDS011;24367;51.640;9.566;2023-03-04T08:57:51;6.30;;;1.90;;
38609;SDS011;24367;51.640;9.566;2023-03-04T09:00:17;3.95;;;1.92;;
38609;SDS011;24367;51.640;9.566;2023-03-04T09:02:46;5.30;;;2.15;;
38609;SDS011;24367;51.640;9.566;2023-03-04T09:05:12;7.15;;;2.00;;
38609;SDS011;24367;51.640;9.566;2023-03-04T09:07:39;6.88;;;2.00;;
38609;SDS011;24367;51.640;9.566;2023-03-04T09:10:06;3.92;;;1.60;;
38609;SDS011;24367;51.640;9.566;2023-03-04T09:12:33;6.53;;;2.38;;
38609;SDS011;24367;51.640;9.566;2023-03-04T09:14:59;3.55;;;1.90;;
38609;SDS011;24367;51.640;9.566;2023-03-04T09:17:27;4.05;;;1.90;;
38609;SDS011;24367;51.640;9.566;2023-03-04T09:19:55;5.18;;;2.05;;
38609;SDS011;24367;51.640;9.566;2023-03-04T09:22:21;3.25;;;1.58;;
38609;SDS011;24367;51.640;9.566;2023-03-04T09:24:48;4.10;;;1.67;;
38609;SDS011;24367;51.640;9.566;2023-03-04T09:27:14;5.05;;;1.60;;
38609;SDS011;24367;51.640;9.566;2023-03-04T09:29:40;6.22;;;1.90;;
38609;SDS011;24367;51.640;9.566;2023-03-04T09:32:08;7.40;;;1.90;;
38609;SDS011;24367;51.640;9.566;2023-03-04T09:34:35;3.58;;;1.65;;
38609;SDS011;24367;51.640;9.566;2023-03-04T09:37:02;6.13;;;1.73;;
38609;SDS011;24367;51.640;9.566;2023-03-04T09:39:29;4.05;;;1.90;;
38609;SDS011;24367;51.640;9.566;2023-03-04T09:41:55;11.60;;;3.30;;
38609;SDS011;24367;51.640;9.566;2023-03-04T09:44:24;6.22;;;2.58;;
38609;SDS011;24367;51.640;9.566;2023-03-04T09:46:52;4.15;;;2.10;;
38609;SDS011;24367;51.640;9.566;2023-03-04T09:49:20;5.43;;;2.10;;
38609;SDS011;24367;51.640;9.566;2023-03-04T09:51:50;6.90;;;2.30;;
38609;SDS011;24367;51.640;9.566;2023-03-04T09:54:26;6.55;;;2.30;;
38609;SDS011;24367;51.640;9.566;2023-03-04T09:57:09;4.57;;;2.00;;
38609;SDS011;24367;51.640;9.566;2023-03-04T09:59:44;7.53;;;2.03;;
38609;SDS011;24367;51.640;9.566;2023-03-04T10:02:17;7.82;;;2.17;;
38609;SDS011;24367;51.640;9.566;2023-03-04T10:04:47;8.57;;;1.83;;
38609;SDS011;24367;51.640;9.566;2023-03-04T10:07:16;5.25;;;2.03;;
38609;SDS011;24367;51.640;9.566;2023-03-04T10:09:46;4.35;;;1.77;;
38609;SDS011;24367;51.640;9.566;2023-03-04T10:12:16;6.32;;;2.30;;
38609;SDS011;24367;51.640;9.566;2023-03-04T10:14:46;5.55;;;2.22;;
38609;SDS011;24367;51.640;9.566;2023-03-04T10:17:16;6.07;;;2.00;;
38609;SDS011;24367;51.640;9.566;2023-03-04T10:19:48;3.78;;;1.67;;
38609;SDS011;24367;51.640;9.566;2023-03-04T10:22:19;3.55;;;1.70;;
38609;SDS011;24367;51.640;9.566;2023-03-04T10:24:52;5.32;;;1.80;;
38609;SDS011;24367;51.640;9.566;2023-03-04T10:27:21;5.65;;;1.73;;
38609;SDS011;24367;51.640;9.566;2023-03-04T10:29:49;3.53;;;1.65;;
38609;SDS011;24367;51.640;9.566;2023-03-04T10:32:16;4.93;;;1.90;;
38609;SDS011;24367;51.640;9.566;2023-03-04T10:34:43;4.53;;;1.65;;
38609;SDS011;24367;51.640;9.566;2023-03-04T10:37:10;8.05;;;1.63;;
38609;SDS011;24367;51.640;9.566;2023-03-04T10:39:37;6.25;;;2.13;;
38609;SDS011;24367;51.640;9.566;2023-03-04T10:42:06;5.20;;;1.70;;
38609;SDS011;24367;51.640;9.566;2023-03-04T10:44:50;7.30;;;2.00;;
38609;SDS011;24367;51.640;9.566;2023-03-04T10:47:17;6.93;;;1.77;;
38609;SDS011;24367;51.640;9.566;2023-03-04T10:49:49;7.10;;;1.77;;
38609;SDS011;24367;51.640;9.566;2023-03-04T10:52:18;3.72;;;1.45;;
38609;SDS011;24367;51.640;9.566;2023-03-04T10:54:51;4.93;;;1.60;;
38609;SDS011;24367;51.640;9.566;2023-03-04T10:57:20;5.35;;;1.83;;
38609;SDS011;24367;51.640;9.566;2023-03-04T10:59:49;5.18;;;1.70;;
38609;SDS011;24367;51.640;9.566;2023-03-04T11:02:22;10.52;;;2.13;;
38609;SDS011;24367;51.640;9.566;2023-03-04T11:04:52;9.30;;;2.40;;
38609;SDS011;24367;51.640;9.566;2023-03-04T11:07:23;4.75;;;1.60;;
38609;SDS011;24367;51.640;9.566;2023-03-04T11:09:50;7.72;;;1.42;;
38609;SDS011;24367;51.640;9.566;2023-03-04T11:12:18;6.22;;;1.40;;
38609;SDS011;24367;51.640;9.566;2023-03-04T11:14:48;5.25;;;1.60;;
38609;SDS011;24367;51.640;9.566;2023-03-04T11:17:17;5.93;;;1.60;;
38609;SDS011;24367;51.640;9.566;2023-03-04T11:19:46;5.60;;;1.48;;
38609;SDS011;24367;51.640;9.566;2023-03-04T11:22:14;5.28;;;1.60;;
38609;SDS011;24367;51.640;9.566;2023-03-04T11:24:43;6.90;;;1.60;;
38609;SDS011;24367;51.640;9.566;2023-03-04T11:27:11;4.38;;;1.10;;
38609;SDS011;24367;51.640;9.566;2023-03-04T11:29:44;11.23;;;1.58;;
38609;SDS011;24367;51.640;9.566;2023-03-04T11:32:14;7.55;;;1.60;;
38609;SDS011;24367;51.640;9.566;2023-03-04T11:34:45;4.97;;;1.50;;
38609;SDS011;24367;51.640;9.566;2023-03-04T11:37:15;5.78;;;1.88;;
38609;SDS011;24367;51.640;9.566;2023-03-04T11:39:45;6.68;;;1.70;;
38609;SDS011;24367;51.640;9.566;2023-03-04T11:42:16;6.93;;;1.80;;
38609;SDS011;24367;51.640;9.566;2023-03-04T11:44:48;4.32;;;1.48;;
38609;SDS011;24367;51.640;9.566;2023-03-04T11:47:18;4.30;;;1.42;;
38609;SDS011;24367;51.640;9.566;2023-03-04T11:52:58;6.40;;;1.70;;
38609;SDS011;24367;51.640;9.566;2023-03-04T11:55:35;5.32;;;1.40;;
38609;SDS011;24367;51.640;9.566;2023-03-04T11:58:09;4.82;;;1.40;;
38609;SDS011;24367;51.640;9.566;2023-03-04T12:00:53;4.38;;;1.40;;
38609;SDS011;24367;51.640;9.566;2023-03-04T12:06:17;2.85;;;1.33;;
38609;SDS011;24367;51.640;9.566;2023-03-04T12:08:51;4.60;;;1.70;;
38609;SDS011;24367;51.640;9.566;2023-03-04T12:11:24;3.13;;;1.50;;
38609;SDS011;24367;51.640;9.566;2023-03-04T12:16:42;13.32;;;2.08;;
38609;SDS011;24367;51.640;9.566;2023-03-04T12:19:26;4.90;;;1.35;;
38609;SDS011;24367;51.640;9.566;2023-03-04T12:22:07;3.60;;;1.50;;
38609;SDS011;24367;51.640;9.566;2023-03-04T12:27:30;3.17;;;1.20;;
38609;SDS011;24367;51.640;9.566;2023-03-04T12:30:02;3.70;;;1.40;;
38609;SDS011;24367;51.640;9.566;2023-03-04T12:32:35;7.45;;;1.70;;
38609;SDS011;24367;51.640;9.566;2023-03-04T12:35:13;3.05;;;1.20;;
38609;SDS011;24367;51.640;9.566;2023-03-04T12:37:49;3.40;;;1.20;;
38609;SDS011;24367;51.640;9.566;2023-03-04T12:40:25;3.67;;;1.27;;
38609;SDS011;24367;51.640;9.566;2023-03-04T12:42:58;4.33;;;1.53;;
38609;SDS011;24367;51.640;9.566;2023-03-04T12:45:31;3.40;;;1.58;;
38609;SDS011;24367;51.640;9.566;2023-03-04T12:48:08;7.53;;;1.40;;
38609;SDS011;24367;51.640;9.566;2023-03-04T12:50:46;2.83;;;1.02;;
38609;SDS011;24367;51.640;9.566;2023-03-04T12:53:20;6.85;;;1.40;;
38609;SDS011;24367;51.640;9.566;2023-03-04T12:55:54;4.68;;;1.40;;
38609;SDS011;24367;51.640;9.566;2023-03-04T12:58:23;3.40;;;1.35;;
38609;SDS011;24367;51.640;9.566;2023-03-04T13:00:54;3.13;;;1.23;;
38609;SDS011;24367;51.640;9.566;2023-03-04T13:03:27;3.30;;;0.80;;
38609;SDS011;24367;51.640;9.566;2023-03-04T13:06:03;2.60;;;1.08;;
38609;SDS011;24367;51.640;9.566;2023-03-04T13:08:36;4.07;;;1.30;;
38609;SDS011;24367;51.640;9.566;2023-03-04T13:17:01;4.20;;;1.42;;
38609;SDS011;24367;51.640;9.566;2023-03-04T13:19:51;2.30;;;1.02;;
38609;SDS011;24367;51.640;9.566;2023-03-04T13:22:25;3.00;;;1.75;;
38609;SDS011;24367;51.640;9.566;2023-03-04T13:24:53;2.50;;;1.10;;
38609;SDS011;24367;51.640;9.566;2023-03-04T13:39:26;3.67;;;1.33;;
38609;SDS011;24367;51.640;9.566;2023-03-04T13:41:54;3.15;;;1.00;;
38609;SDS011;24367;51.640;9.566;2023-03-04T13:44:30;2.40;;;1.10;;
38609;SDS011;24367;51.640;9.566;2023-03-04T13:47:32;4.38;;;1.42;;
38609;SDS011;24367;51.640;9.566;2023-03-04T13:52:53;3.53;;;1.00;;
38609;SDS011;24367;51.640;9.566;2023-03-04T13:55:31;10.85;;;1.73;;
38609;SDS011;24367;51.640;9.566;2023-03-04T13:58:11;5.00;;;0.93;;
38609;SDS011;24367;51.640;9.566;2023-03-04T14:00:44;2.10;;;1.00;;
38609;SDS011;24367;51.640;9.566;2023-03-04T14:03:13;2.80;;;0.98;;
38609;SDS011;24367;51.640;9.566;2023-03-04T14:05:40;1.83;;;0.90;;
38609;SDS011;24367;51.640;9.566;2023-03-04T14:08:16;2.58;;;1.00;;
38609;SDS011;24367;51.640;9.566;2023-03-04T14:10:44;5.97;;;1.13;;
38609;SDS011;24367;51.640;9.566;2023-03-04T14:13:19;5.55;;;1.27;;
38609;SDS011;24367;51.640;9.566;2023-03-04T14:15:52;3.80;;;1.00;;
38609;SDS011;24367;51.640;9.566;2023-03-04T14:18:19;2.65;;;1.23;;
38609;SDS011;24367;51.640;9.566;2023-03-04T14:20:49;5.63;;;1.30;;
38609;SDS011;24367;51.640;9.566;2023-03-04T14:23:22;2.17;;;1.10;;
38609;SDS011;24367;51.640;9.566;2023-03-04T14:25:50;2.30;;;1.30;;
38609;SDS011;24367;51.640;9.566;2023-03-04T14:28:17;3.10;;;1.15;;
38609;SDS011;24367;51.640;9.566;2023-03-04T14:30:49;2.03;;;0.90;;
38609;SDS011;24367;51.640;9.566;2023-03-04T14:33:19;2.15;;;1.00;;
38609;SDS011;24367;51.640;9.566;2023-03-04T14:35:47;3.03;;;1.10;;
38609;SDS011;24367;51.640;9.566;2023-03-04T14:38:17;2.45;;;0.90;;
38609;SDS011;24367;51.640;9.566;2023-03-04T14:40:47;4.75;;;1.10;;
38609;SDS011;24367;51.640;9.566;2023-03-04T14:43:17;2.13;;;0.88;;
38609;SDS011;24367;51.640;9.566;2023-03-04T14:45:46;4.07;;;1.20;;
38609;SDS011;24367;51.640;9.566;2023-03-04T14:48:15;2.35;;;1.08;;
38609;SDS011;24367;51.640;9.566;2023-03-04T14:50:46;3.42;;;1.10;;
38609;SDS011;24367;51.640;9.566;2023-03-04T14:53:14;1.70;;;0.80;;
38609;SDS011;24367;51.640;9.566;2023-03-04T14:55:55;2.75;;;1.20;;
38609;SDS011;24367;51.640;9.566;2023-03-04T14:58:24;3.17;;;1.08;;
38609;SDS011;24367;51.640;9.566;2023-03-04T15:01:02;4.90;;;1.30;;
38609;SDS011;24367;51.640;9.566;2023-03-04T15:03:29;4.20;;;1.10;;
38609;SDS011;24367;51.640;9.566;2023-03-04T15:06:04;5.45;;;1.30;;
38609;SDS011;24367;51.640;9.566;2023-03-04T15:08:32;3.53;;;1.08;;
38609;SDS011;24367;51.640;9.566;2023-03-04T15:11:01;5.15;;;1.52;;
38609;SDS011;24367;51.640;9.566;2023-03-04T15:13:37;3.47;;;1.05;;
38609;SDS011;24367;51.640;9.566;2023-03-04T15:16:04;5.00;;;1.35;;
38609;SDS011;24367;51.640;9.566;2023-03-04T15:18:32;4.68;;;1.20;;
38609;SDS011;24367;51.640;9.566;2023-03-04T15:20:59;4.03;;;1.52;;
38609;SDS011;24367;51.640;9.566;2023-03-04T15:23:27;4.18;;;1.33;;
38609;SDS011;24367;51.640;9.566;2023-03-04T15:25:55;3.63;;;1.15;;
38609;SDS011;24367;51.640;9.566;2023-03-04T15:28:23;3.20;;;0.90;;
38609;SDS011;24367;51.640;9.566;2023-03-04T15:30:51;4.00;;;1.30;;